sensor_id;sensor_type;location;lat;lon;timestamp;P1;durP1;ratioP1;P2;durP2;ratioP2
30036;SDS011;36325;51.512;-0.382;2023-04-06T00:01:23;31.88;;;16.77;;
30036;SDS011;36325;51.512;-0.382;2023-04-06T00:03:51;30.95;;;16.63;;
30036;SDS011;36325;51.512;-0.382;2023-04-06T00:06:18;31.90;;;17.67;;
30036;SDS011;36325;51.512;-0.382;2023-04-06T00:08:46;32.70;;;16.40;;
30036;SDS011;36325;51.512;-0.382;2023-04-06T00:11:14;30.45;;;15.95;;
30036;SDS011;36325;51.512;-0.382;2023-04-06T00:13:44;27.58;;;14.98;;
30036;SDS011;36325;51.512;-0.382;2023-04-06T00:16:11;30.08;;;16.55;;
30036;SDS011;36325;51.512;-0.382;2023-04-06T00:18:39;27.25;;;14.57;;
30036;SDS011;36325;51.512;-0.382;2023-04-06T00:21:06;25.85;;;14.98;;
30036;SDS011;36325;51.512;-0.382;2023-04-06T00:23:34;26.88;;;15.63;;
30036;SDS011;36325;51.512;-0.382;2023-04-06T00:26:01;26.17;;;14.18;;
30036;SDS011;36325;51.512;-0.382;2023-04-06T00:28:28;28.65;;;15.80;;
30036;SDS011;36325;51.512;-0.382;2023-04-06T00:30:56;26.20;;;13.30;;
30036;SDS011;36325;51.512;-0.382;2023-04-06T00:33:24;24.50;;;13.27;;
30036;SDS011;36325;51.512;-0.382;2023-04-06T00:35:51;28.08;;;14.23;;
30036;SDS011;36325;51.512;-0.382;2023-04-06T00:38:18;32.60;;;15.82;;
30036;SDS011;36325;51.512;-0.382;2023-04-06T00:40:45;28.25;;;15.05;;
30036;SDS011;36325;51.512;-0.382;2023-04-06T00:43:13;30.55;;;14.57;;
30036;SDS011;36325;51.512;-0.382;2023-04-06T00:45:41;25.48;;;13.63;;
30036;SDS011;36325;51.512;-0.382;2023-04-06T00:48:08;26.33;;;14.23;;
30036;SDS011;36325;51.512;-0.382;2023-04-06T00:50:36;30.02;;;14.93;;
30036;SDS011;36325;51.512;-0.382;2023-04-06T00:53:03;27.42;;;13.93;;
30036;SDS011;36325;51.512;-0.382;2023-04-06T00:55:30;25.17;;;13.93;;
30036;SDS011;36325;51.512;-0.382;2023-04-06T00:57:58;24.67;;;13.43;;
30036;SDS011;36325;51.512;-0.382;2023-04-06T01:00:35;26.85;;;12.05;;
30036;SDS011;36325;51.512;-0.382;2023-04-06T01:03:03;24.50;;;13.43;;
30036;SDS011;36325;51.512;-0.382;2023-04-06T01:05:39;26.98;;;12.75;;
30036;SDS011;36325;51.512;-0.382;2023-04-06T01:08:15;20.88;;;11.07;;
30036;SDS011;36325;51.512;-0.382;2023-04-06T01:10:43;22.45;;;12.10;;
30036;SDS011;36325;51.512;-0.382;2023-04-06T01:13:21;22.27;;;11.93;;
30036;SDS011;36325;51.512;-0.382;2023-04-06T01:15:54;20.35;;;10.30;;
30036;SDS011;36325;51.512;-0.382;2023-04-06T01:18:44;17.13;;;9.15;;
30036;SDS011;36325;51.512;-0.382;2023-04-06T01:21:16;22.43;;;11.37;;
30036;SDS011;36325;51.512;-0.382;2023-04-06T01:24:18;18.45;;;10.57;;
30036;SDS011;36325;51.512;-0.382;2023-04-06T01:27:02;20.33;;;11.52;;
30036;SDS011;36325;51.512;-0.382;2023-04-06T01:29:48;20.83;;;11.13;;
30036;SDS011;36325;51.512;-0.382;2023-04-06T01:32:26;24.27;;;11.07;;
30036;SDS011;36325;51.512;-0.382;2023-04-06T01:34:53;19.52;;;11.40;;
30036;SDS011;36325;51.512;-0.382;2023-04-06T01:37:21;21.48;;;12.40;;
30036;SDS011;36325;51.512;-0.382;2023-04-06T01:39:52;17.45;;;10.18;;
30036;SDS011;36325;51.512;-0.382;2023-04-06T01:42:33;17.48;;;10.98;;
30036;SDS011;36325;51.512;-0.382;2023-04-06T01:45:01;25.58;;;11.07;;
30036;SDS011;36325;51.512;-0.382;2023-04-06T01:47:28;21.55;;;11.73;;
30036;SDS011;36325;51.512;-0.382;2023-04-06T01:49:56;20.25;;;11.40;;
30036;SDS011;36325;51.512;-0.382;2023-04-06T01:52:24;22.35;;;12.77;;
30036;SDS011;36325;51.512;-0.382;2023-04-06T01:54:52;19.48;;;12.27;;
30036;SDS011;36325;51.512;-0.382;2023-04-06T01:57:43;21.42;;;12.27;;
30036;SDS011;36325;51.512;-0.382;2023-04-06T02:00:17;23.13;;;13.10;;
30036;SDS011;36325;51.512;-0.382;2023-04-06T02:02:51;24.60;;;11.43;;
30036;SDS011;36325;51.512;-0.382;2023-04-06T02:05:23;20.52;;;12.18;;
30036;SDS011;36325;51.512;-0.382;2023-04-06T02:07:52;20.38;;;11.52;;
30036;SDS011;36325;51.512;-0.382;2023-04-06T02:10:30;22.60;;;13.20;;
30036;SDS011;36325;51.512;-0.382;2023-04-06T02:13:03;25.60;;;11.85;;
30036;SDS011;36325;51.512;-0.382;2023-04-06T02:15:32;22.70;;;11.80;;
30036;SDS011;36325;51.512;-0.382;2023-04-06T02:17:59;22.75;;;10.93;;
30036;SDS011;36325;51.512;-0.382;2023-04-06T02:20:27;19.83;;;10.93;;
30036;SDS011;36325;51.512;-0.382;2023-04-06T02:22:56;23.33;;;11.68;;
30036;SDS011;36325;51.512;-0.382;2023-04-06T02:25:25;17.10;;;10.63;;
30036;SDS011;36325;51.512;-0.382;2023-04-06T02:27:52;21.75;;;12.52;;
30036;SDS011;36325;51.512;-0.382;2023-04-06T02:30:20;25.95;;;11.20;;
30036;SDS011;36325;51.512;-0.382;2023-04-06T02:32:48;20.48;;;10.80;;
30036;SDS011;36325;51.512;-0.382;2023-04-06T02:35:15;16.35;;;9.77;;
30036;SDS011;36325;51.512;-0.382;2023-04-06T02:37:45;17.70;;;10.02;;
30036;SDS011;36325;51.512;-0.382;2023-04-06T02:40:13;20.63;;;12.15;;
30036;SDS011;36325;51.512;-0.382;2023-04-06T02:42:40;19.70;;;12.40;;
30036;SDS011;36325;51.512;-0.382;2023-04-06T02:45:08;24.92;;;11.20;;
30036;SDS011;36325;51.512;-0.382;2023-04-06T02:47:41;22.40;;;12.18;;
30036;SDS011;36325;51.512;-0.382;2023-04-06T02:50:12;24.77;;;12.65;;
30036;SDS011;36325;51.512;-0.382;2023-04-06T02:52:46;20.38;;;10.60;;
30036;SDS011;36325;51.512;-0.382;2023-04-06T02:55:14;19.45;;;11.25;;
30036;SDS011;36325;51.512;-0.382;2023-04-06T02:57:41;21.33;;;11.70;;
30036;SDS011;36325;51.512;-0.382;2023-04-06T03:00:09;17.65;;;10.43;;
30036;SDS011;36325;51.512;-0.382;2023-04-06T03:02:39;23.98;;;12.57;;
30036;SDS011;36325;51.512;-0.382;2023-04-06T03:05:11;20.08;;;11.13;;
30036;SDS011;36325;51.512;-0.382;2023-04-06T03:07:41;25.42;;;13.18;;
30036;SDS011;36325;51.512;-0.382;2023-04-06T03:10:15;21.50;;;12.00;;
30036;SDS011;36325;51.512;-0.382;2023-04-06T03:12:45;19.65;;;10.38;;
30036;SDS011;36325;51.512;-0.382;2023-04-06T03:15:16;18.90;;;10.00;;
30036;SDS011;36325;51.512;-0.382;2023-04-06T03:17:49;19.95;;;11.98;;
30036;SDS011;36325;51.512;-0.382;2023-04-06T03:20:39;19.83;;;10.98;;
30036;SDS011;36325;51.512;-0.382;2023-04-06T03:23:08;20.70;;;10.82;;
30036;SDS011;36325;51.512;-0.382;2023-04-06T03:25:39;20.13;;;11.13;;
30036;SDS011;36325;51.512;-0.382;2023-04-06T03:28:09;19.67;;;10.43;;
30036;SDS011;36325;51.512;-0.382;2023-04-06T03:30:46;20.98;;;11.55;;
30036;SDS011;36325;51.512;-0.382;2023-04-06T03:33:16;18.55;;;10.00;;
30036;SDS011;36325;51.512;-0.382;2023-04-06T03:35:51;17.85;;;9.20;;
30036;SDS011;36325;51.512;-0.382;2023-04-06T03:38:21;19.70;;;10.88;;
30036;SDS011;36325;51.512;-0.382;2023-04-06T03:40:48;17.67;;;10.18;;
30036;SDS011;36325;51.512;-0.382;2023-04-06T03:43:20;24.17;;;10.82;;
30036;SDS011;36325;51.512;-0.382;2023-04-06T03:45:48;16.73;;;9.48;;
30036;SDS011;36325;51.512;-0.382;2023-04-06T03:48:15;18.63;;;9.27;;
30036;SDS011;36325;51.512;-0.382;2023-04-06T03:50:42;20.23;;;9.52;;
30036;SDS011;36325;51.512;-0.382;2023-04-06T03:53:10;23.75;;;9.27;;
30036;SDS011;36325;51.512;-0.382;2023-04-06T03:55:37;18.05;;;9.52;;
30036;SDS011;36325;51.512;-0.382;2023-04-06T03:58:04;14.90;;;8.70;;
30036;SDS011;36325;51.512;-0.382;2023-04-06T04:00:32;18.02;;;9.35;;
30036;SDS011;36325;51.512;-0.382;2023-04-06T04:02:59;16.35;;;9.02;;
30036;SDS011;36325;51.512;-0.382;2023-04-06T04:05:28;23.90;;;9.82;;
30036;SDS011;36325;51.512;-0.382;2023-04-06T04:07:56;23.08;;;9.02;;
30036;SDS011;36325;51.512;-0.382;2023-04-06T04:10:25;21.63;;;8.55;;
30036;SDS011;36325;51.512;-0.382;2023-04-06T04:12:53;15.40;;;8.55;;
30036;SDS011;36325;51.512;-0.382;2023-04-06T04:15:20;16.73;;;8.50;;
30036;SDS011;36325;51.512;-0.382;2023-04-06T04:17:48;17.33;;;9.02;;
30036;SDS011;36325;51.512;-0.382;2023-04-06T04:20:17;16.00;;;8.40;;
30036;SDS011;36325;51.512;-0.382;2023-04-06T04:22:44;15.38;;;8.98;;
30036;SDS011;36325;51.512;-0.382;2023-04-06T04:25:11;17.58;;;8.00;;
30036;SDS011;36325;51.512;-0.382;2023-04-06T04:27:44;22.40;;;9.07;;
30036;SDS011;36325;51.512;-0.382;2023-04-06T04:30:11;15.13;;;7.97;;
30036;SDS011;36325;51.512;-0.382;2023-04-06T04:32:38;16.98;;;9.32;;
30036;SDS011;36325;51.512;-0.382;2023-04-06T04:35:08;21.48;;;10.32;;
30036;SDS011;36325;51.512;-0.382;2023-04-06T04:37:41;19.48;;;10.10;;
30036;SDS011;36325;51.512;-0.382;2023-04-06T04:40:10;21.92;;;9.43;;
30036;SDS011;36325;51.512;-0.382;2023-04-06T04:42:55;20.90;;;10.70;;
30036;SDS011;36325;51.512;-0.382;2023-04-06T04:45:29;21.77;;;10.35;;
30036;SDS011;36325;51.512;-0.382;2023-04-06T04:48:02;19.02;;;9.65;;
30036;SDS011;36325;51.512;-0.382;2023-04-06T04:50:44;17.27;;;8.98;;
30036;SDS011;36325;51.512;-0.382;2023-04-06T04:53:13;28.73;;;10.52;;
30036;SDS011;36325;51.512;-0.382;2023-04-06T04:55:42;20.33;;;10.23;;
30036;SDS011;36325;51.512;-0.382;2023-04-06T04:58:11;20.40;;;10.10;;
30036;SDS011;36325;51.512;-0.382;2023-04-06T05:00:51;25.05;;;10.48;;
30036;SDS011;36325;51.512;-0.382;2023-04-06T05:03:22;26.13;;;11.27;;
30036;SDS011;36325;51.512;-0.382;2023-04-06T05:06:00;20.48;;;9.98;;
30036;SDS011;36325;51.512;-0.382;2023-04-06T05:08:31;21.63;;;10.68;;
30036;SDS011;36325;51.512;-0.382;2023-04-06T05:10:59;23.27;;;11.35;;
30036;SDS011;36325;51.512;-0.382;2023-04-06T05:13:30;27.65;;;11.68;;
30036;SDS011;36325;51.512;-0.382;2023-04-06T05:16:00;21.35;;;11.27;;
30036;SDS011;36325;51.512;-0.382;2023-04-06T05:18:31;25.40;;;11.15;;
30036;SDS011;36325;51.512;-0.382;2023-04-06T05:21:00;23.13;;;12.18;;
30036;SDS011;36325;51.512;-0.382;2023-04-06T05:23:38;25.42;;;11.82;;
30036;SDS011;36325;51.512;-0.382;2023-04-06T05:26:06;23.65;;;11.75;;
30036;SDS011;36325;51.512;-0.382;2023-04-06T05:28:33;26.95;;;13.38;;
30036;SDS011;36325;51.512;-0.382;2023-04-06T05:31:02;26.55;;;13.80;;
30036;SDS011;36325;51.512;-0.382;2023-04-06T05:33:38;27.40;;;13.07;;
30036;SDS011;36325;51.512;-0.382;2023-04-06T05:36:08;37.28;;;15.85;;
30036;SDS011;36325;51.512;-0.382;2023-04-06T05:38:41;28.77;;;14.95;;
30036;SDS011;36325;51.512;-0.382;2023-04-06T05:41:19;33.88;;;15.52;;
30036;SDS011;36325;51.512;-0.382;2023-04-06T05:43:47;31.92;;;15.10;;
30036;SDS011;36325;51.512;-0.382;2023-04-06T05:46:14;30.70;;;15.55;;
30036;SDS011;36325;51.512;-0.382;2023-04-06T05:48:42;33.15;;;15.32;;
30036;SDS011;36325;51.512;-0.382;2023-04-06T05:51:12;34.13;;;16.17;;
30036;SDS011;36325;51.512;-0.382;2023-04-06T05:53:46;30.17;;;15.23;;
30036;SDS011;36325;51.512;-0.382;2023-04-06T05:56:13;34.28;;;15.20;;
30036;SDS011;36325;51.512;-0.382;2023-04-06T05:58:42;37.35;;;16.95;;
30036;SDS011;36325;51.512;-0.382;2023-04-06T06:01:12;34.35;;;15.38;;
30036;SDS011;36325;51.512;-0.382;2023-04-06T06:03:44;35.63;;;14.90;;
30036;SDS011;36325;51.512;-0.382;2023-04-06T06:06:11;36.05;;;15.52;;
30036;SDS011;36325;51.512;-0.382;2023-04-06T06:09:07;34.78;;;15.38;;
30036;SDS011;36325;51.512;-0.382;2023-04-06T06:11:41;31.08;;;15.27;;
30036;SDS011;36325;51.512;-0.382;2023-04-06T06:14:10;31.52;;;14.05;;
30036;SDS011;36325;51.512;-0.382;2023-04-06T06:16:39;34.72;;;14.82;;
30036;SDS011;36325;51.512;-0.382;2023-04-06T06:19:09;34.80;;;16.13;;
30036;SDS011;36325;51.512;-0.382;2023-04-06T06:21:38;28.58;;;14.40;;
30036;SDS011;36325;51.512;-0.382;2023-04-06T06:24:06;36.78;;;15.85;;
30036;SDS011;36325;51.512;-0.382;2023-04-06T06:26:34;39.05;;;13.77;;
30036;SDS011;36325;51.512;-0.382;2023-04-06T06:29:06;26.00;;;11.30;;
30036;SDS011;36325;51.512;-0.382;2023-04-06T06:31:36;21.35;;;10.15;;
30036;SDS011;36325;51.512;-0.382;2023-04-06T06:34:04;22.65;;;11.30;;
30036;SDS011;36325;51.512;-0.382;2023-04-06T06:36:34;24.35;;;12.57;;
30036;SDS011;36325;51.512;-0.382;2023-04-06T06:39:05;22.42;;;11.55;;
30036;SDS011;36325;51.512;-0.382;2023-04-06T06:41:33;21.33;;;10.85;;
30036;SDS011;36325;51.512;-0.382;2023-04-06T06:44:01;21.30;;;11.10;;
30036;SDS011;36325;51.512;-0.382;2023-04-06T06:46:28;19.45;;;10.63;;
30036;SDS011;36325;51.512;-0.382;2023-04-06T06:48:56;21.05;;;10.23;;
30036;SDS011;36325;51.512;-0.382;2023-04-06T06:51:25;17.98;;;10.32;;
30036;SDS011;36325;51.512;-0.382;2023-04-06T06:53:52;22.85;;;10.40;;
30036;SDS011;36325;51.512;-0.382;2023-04-06T06:56:20;20.65;;;10.57;;
30036;SDS011;36325;51.512;-0.382;2023-04-06T06:58:50;19.98;;;10.35;;
30036;SDS011;36325;51.512;-0.382;2023-04-06T07:01:18;27.05;;;10.95;;
30036;SDS011;36325;51.512;-0.382;2023-04-06T07:03:46;20.40;;;9.23;;
30036;SDS011;36325;51.512;-0.382;2023-04-06T07:06:15;18.20;;;8.88;;
30036;SDS011;36325;51.512;-0.382;2023-04-06T07:08:42;17.80;;;7.25;;
30036;SDS011;36325;51.512;-0.382;2023-04-06T07:11:09;18.23;;;7.30;;
30036;SDS011;36325;51.512;-0.382;2023-04-06T07:13:37;16.95;;;7.30;;
30036;SDS011;36325;51.512;-0.382;2023-04-06T07:16:04;12.52;;;5.55;;
30036;SDS011;36325;51.512;-0.382;2023-04-06T07:18:31;9.32;;;4.95;;
30036;SDS011;36325;51.512;-0.382;2023-04-06T07:21:01;9.07;;;4.97;;
30036;SDS011;36325;51.512;-0.382;2023-04-06T07:23:29;8.23;;;4.47;;
30036;SDS011;36325;51.512;-0.382;2023-04-06T07:25:56;13.40;;;5.65;;
30036;SDS011;36325;51.512;-0.382;2023-04-06T07:28:23;13.98;;;4.88;;
30036;SDS011;36325;51.512;-0.382;2023-04-06T07:30:50;8.25;;;3.92;;
30036;SDS011;36325;51.512;-0.382;2023-04-06T07:33:17;8.30;;;4.35;;
30036;SDS011;36325;51.512;-0.382;2023-04-06T07:35:45;14.70;;;4.32;;
30036;SDS011;36325;51.512;-0.382;2023-04-06T07:38:13;12.45;;;4.03;;
30036;SDS011;36325;51.512;-0.382;2023-04-06T07:40:42;8.30;;;3.13;;
30036;SDS011;36325;51.512;-0.382;2023-04-06T07:43:12;6.70;;;3.38;;
30036;SDS011;36325;51.512;-0.382;2023-04-06T07:45:40;9.43;;;2.42;;
30036;SDS011;36325;51.512;-0.382;2023-04-06T07:48:08;5.22;;;3.40;;
30036;SDS011;36325;51.512;-0.382;2023-04-06T07:50:37;8.98;;;3.33;;
30036;SDS011;36325;51.512;-0.382;2023-04-06T07:53:05;8.43;;;3.30;;
30036;SDS011;36325;51.512;-0.382;2023-04-06T07:55:33;15.02;;;3.40;;
30036;SDS011;36325;51.512;-0.382;2023-04-06T07:58:01;8.18;;;2.63;;
30036;SDS011;36325;51.512;-0.382;2023-04-06T08:00:28;19.30;;;3.55;;
30036;SDS011;36325;51.512;-0.382;2023-04-06T08:02:56;8.40;;;2.15;;
30036;SDS011;36325;51.512;-0.382;2023-04-06T08:05:23;13.27;;;3.67;;
30036;SDS011;36325;51.512;-0.382;2023-04-06T08:07:51;13.52;;;4.13;;
30036;SDS011;36325;51.512;-0.382;2023-04-06T08:10:18;12.43;;;3.58;;
30036;SDS011;36325;51.512;-0.382;2023-04-06T08:12:45;13.93;;;2.95;;
30036;SDS011;36325;51.512;-0.382;2023-04-06T08:15:13;10.05;;;2.63;;
30036;SDS011;36325;51.512;-0.382;2023-04-06T08:17:41;10.77;;;2.55;;
30036;SDS011;36325;51.512;-0.382;2023-04-06T08:20:08;12.55;;;2.88;;
30036;SDS011;36325;51.512;-0.382;2023-04-06T08:22:36;14.90;;;3.25;;
30036;SDS011;36325;51.512;-0.382;2023-04-06T08:25:04;19.67;;;3.33;;
30036;SDS011;36325;51.512;-0.382;2023-04-06T08:27:31;15.45;;;2.67;;
30036;SDS011;36325;51.512;-0.382;2023-04-06T08:29:59;12.82;;;3.00;;
30036;SDS011;36325;51.512;-0.382;2023-04-06T08:32:26;14.45;;;2.45;;
30036;SDS011;36325;51.512;-0.382;2023-04-06T08:34:54;9.82;;;2.88;;
30036;SDS011;36325;51.512;-0.382;2023-04-06T08:37:22;7.10;;;2.42;;
30036;SDS011;36325;51.512;-0.382;2023-04-06T08:39:49;9.90;;;3.17;;
30036;SDS011;36325;51.512;-0.382;2023-04-06T08:42:20;14.82;;;3.47;;
30036;SDS011;36325;51.512;-0.382;2023-04-06T08:44:49;11.80;;;2.58;;
30036;SDS011;36325;51.512;-0.382;2023-04-06T08:47:20;23.15;;;2.92;;
30036;SDS011;36325;51.512;-0.382;2023-04-06T08:49:50;10.82;;;2.67;;
30036;SDS011;36325;51.512;-0.382;2023-04-06T08:52:19;22.00;;;2.85;;
30036;SDS011;36325;51.512;-0.382;2023-04-06T08:54:47;10.57;;;3.20;;
30036;SDS011;36325;51.512;-0.382;2023-04-06T08:57:14;13.85;;;3.40;;
30036;SDS011;36325;51.512;-0.382;2023-04-06T08:59:43;8.80;;;3.30;;
30036;SDS011;36325;51.512;-0.382;2023-04-06T09:02:12;9.13;;;2.90;;
30036;SDS011;36325;51.512;-0.382;2023-04-06T09:04:47;18.17;;;3.58;;
30036;SDS011;36325;51.512;-0.382;2023-04-06T09:07:16;17.08;;;3.50;;
30036;SDS011;36325;51.512;-0.382;2023-04-06T09:09:44;11.65;;;2.95;;
30036;SDS011;36325;51.512;-0.382;2023-04-06T09:12:27;19.20;;;3.03;;
30036;SDS011;36325;51.512;-0.382;2023-04-06T09:14:57;12.85;;;3.10;;
30036;SDS011;36325;51.512;-0.382;2023-04-06T09:17:26;18.77;;;3.40;;
30036;SDS011;36325;51.512;-0.382;2023-04-06T09:19:54;12.55;;;3.30;;
30036;SDS011;36325;51.512;-0.382;2023-04-06T09:22:23;13.57;;;2.90;;
30036;SDS011;36325;51.512;-0.382;2023-04-06T09:24:56;17.92;;;3.13;;
30036;SDS011;36325;51.512;-0.382;2023-04-06T09:27:29;13.30;;;2.53;;
30036;SDS011;36325;51.512;-0.382;2023-04-06T09:30:08;9.13;;;2.90;;
30036;SDS011;36325;51.512;-0.382;2023-04-06T09:32:44;7.05;;;2.90;;
30036;SDS011;36325;51.512;-0.382;2023-04-06T09:35:15;8.07;;;2.20;;
30036;SDS011;36325;51.512;-0.382;2023-04-06T09:37:44;11.50;;;2.42;;
30036;SDS011;36325;51.512;-0.382;2023-04-06T09:40:12;6.53;;;2.38;;
30036;SDS011;36325;51.512;-0.382;2023-04-06T09:42:41;8.52;;;2.38;;
30036;SDS011;36325;51.512;-0.382;2023-04-06T09:45:09;6.05;;;2.03;;
30036;SDS011;36325;51.512;-0.382;2023-04-06T09:47:37;9.75;;;2.08;;
30036;SDS011;36325;51.512;-0.382;2023-04-06T09:52:40;7.68;;;2.20;;
30036;SDS011;36325;51.512;-0.382;2023-04-06T09:55:20;9.10;;;1.90;;
30036;SDS011;36325;51.512;-0.382;2023-04-06T09:57:57;6.43;;;1.88;;
30036;SDS011;36325;51.512;-0.382;2023-04-06T10:01:16;5.13;;;1.65;;
30036;SDS011;36325;51.512;-0.382;2023-04-06T10:03:34;5.38;;;1.80;;
30036;SDS011;36325;51.512;-0.382;2023-04-06T10:06:16;7.00;;;2.10;;
30036;SDS011;36325;51.512;-0.382;2023-04-06T10:08:49;8.13;;;1.85;;
30036;SDS011;36325;51.512;-0.382;2023-04-06T10:11:18;7.30;;;2.00;;
30036;SDS011;36325;51.512;-0.382;2023-04-06T10:13:46;7.45;;;1.75;;
30036;SDS011;36325;51.512;-0.382;2023-04-06T10:16:15;5.63;;;2.05;;
30036;SDS011;36325;51.512;-0.382;2023-04-06T10:18:47;6.53;;;2.47;;
30036;SDS011;36325;51.512;-0.382;2023-04-06T10:21:22;8.20;;;1.92;;
30036;SDS011;36325;51.512;-0.382;2023-04-06T10:23:53;6.78;;;1.90;;
30036;SDS011;36325;51.512;-0.382;2023-04-06T10:26:24;7.25;;;1.55;;
30036;SDS011;36325;51.512;-0.382;2023-04-06T10:28:51;7.38;;;1.88;;
30036;SDS011;36325;51.512;-0.382;2023-04-06T10:31:27;8.85;;;1.92;;
30036;SDS011;36325;51.512;-0.382;2023-04-06T10:36:32;11.07;;;2.17;;
30036;SDS011;36325;51.512;-0.382;2023-04-06T10:39:04;5.00;;;2.00;;
30036;SDS011;36325;51.512;-0.382;2023-04-06T10:44:00;7.05;;;1.95;;
30036;SDS011;36325;51.512;-0.382;2023-04-06T10:46:28;3.78;;;1.67;;
30036;SDS011;36325;51.512;-0.382;2023-04-06T10:48:57;3.72;;;1.63;;
30036;SDS011;36325;51.512;-0.382;2023-04-06T10:51:27;5.97;;;2.00;;
30036;SDS011;36325;51.512;-0.382;2023-04-06T10:53:56;11.50;;;2.53;;
30036;SDS011;36325;51.512;-0.382;2023-04-06T10:56:24;6.72;;;1.98;;
30036;SDS011;36325;51.512;-0.382;2023-04-06T10:58:54;5.03;;;2.38;;
30036;SDS011;36325;51.512;-0.382;2023-04-06T11:01:25;7.68;;;2.20;;
30036;SDS011;36325;51.512;-0.382;2023-04-06T11:03:55;13.80;;;2.60;;
30036;SDS011;36325;51.512;-0.382;2023-04-06T11:06:27;5.72;;;1.63;;
30036;SDS011;36325;51.512;-0.382;2023-04-06T11:08:56;8.32;;;1.73;;
30036;SDS011;36325;51.512;-0.382;2023-04-06T11:11:25;6.50;;;2.28;;
30036;SDS011;36325;51.512;-0.382;2023-04-06T11:13:54;6.15;;;1.92;;
30036;SDS011;36325;51.512;-0.382;2023-04-06T11:16:23;8.43;;;1.90;;
30036;SDS011;36325;51.512;-0.382;2023-04-06T11:26:44;5.80;;;2.50;;
30036;SDS011;36325;51.512;-0.382;2023-04-06T11:29:15;5.68;;;1.48;;
30036;SDS011;36325;51.512;-0.382;2023-04-06T11:31:53;5.07;;;1.45;;
30036;SDS011;36325;51.512;-0.382;2023-04-06T11:34:28;3.70;;;1.27;;
30036;SDS011;36325;51.512;-0.382;2023-04-06T11:36:58;3.65;;;1.30;;
30036;SDS011;36325;51.512;-0.382;2023-04-06T11:39:27;11.63;;;1.10;;
30036;SDS011;36325;51.512;-0.382;2023-04-06T11:42:01;4.43;;;1.25;;
30036;SDS011;36325;51.512;-0.382;2023-04-06T11:44:35;4.22;;;1.10;;
30036;SDS011;36325;51.512;-0.382;2023-04-06T11:47:04;5.22;;;1.30;;
30036;SDS011;36325;51.512;-0.382;2023-04-06T11:49:33;4.38;;;1.02;;
30036;SDS011;36325;51.512;-0.382;2023-04-06T11:52:13;6.05;;;1.17;;
30036;SDS011;36325;51.512;-0.382;2023-04-06T11:54:41;3.53;;;0.70;;
30036;SDS011;36325;51.512;-0.382;2023-04-06T11:57:09;2.03;;;0.88;;
30036;SDS011;36325;51.512;-0.382;2023-04-06T11:59:38;3.20;;;1.30;;
30036;SDS011;36325;51.512;-0.382;2023-04-06T12:02:05;1.70;;;1.08;;
30036;SDS011;36325;51.512;-0.382;2023-04-06T12:04:32;6.45;;;1.35;;
30036;SDS011;36325;51.512;-0.382;2023-04-06T12:07:00;6.55;;;1.42;;
30036;SDS011;36325;51.512;-0.382;2023-04-06T12:09:27;4.43;;;1.40;;
30036;SDS011;36325;51.512;-0.382;2023-04-06T12:11:55;2.55;;;0.90;;
30036;SDS011;36325;51.512;-0.382;2023-04-06T12:14:22;1.75;;;1.00;;
30036;SDS011;36325;51.512;-0.382;2023-04-06T12:16:52;6.78;;;1.67;;
30036;SDS011;36325;51.512;-0.382;2023-04-06T12:19:19;3.05;;;1.10;;
30036;SDS011;36325;51.512;-0.382;2023-04-06T12:21:47;7.22;;;1.30;;
30036;SDS011;36325;51.512;-0.382;2023-04-06T12:24:14;2.90;;;1.10;;
30036;SDS011;36325;51.512;-0.382;2023-04-06T12:26:42;3.60;;;1.05;;
30036;SDS011;36325;51.512;-0.382;2023-04-06T12:29:09;3.58;;;0.93;;
30036;SDS011;36325;51.512;-0.382;2023-04-06T12:31:37;2.10;;;1.10;;
30036;SDS011;36325;51.512;-0.382;2023-04-06T12:34:05;7.00;;;1.40;;
30036;SDS011;36325;51.512;-0.382;2023-04-06T12:36:33;4.82;;;1.02;;
30036;SDS011;36325;51.512;-0.382;2023-04-06T12:39:00;5.75;;;1.10;;
30036;SDS011;36325;51.512;-0.382;2023-04-06T12:41:29;6.35;;;0.98;;
30036;SDS011;36325;51.512;-0.382;2023-04-06T12:43:57;7.63;;;1.55;;
30036;SDS011;36325;51.512;-0.382;2023-04-06T12:46:26;5.07;;;1.17;;
30036;SDS011;36325;51.512;-0.382;2023-04-06T12:48:53;2.40;;;1.00;;
30036;SDS011;36325;51.512;-0.382;2023-04-06T12:51:21;4.60;;;1.23;;
30036;SDS011;36325;51.512;-0.382;2023-04-06T12:53:49;4.57;;;1.13;;
30036;SDS011;36325;51.512;-0.382;2023-04-06T12:56:17;6.75;;;1.38;;
30036;SDS011;36325;51.512;-0.382;2023-04-06T12:58:44;3.47;;;0.90;;
30036;SDS011;36325;51.512;-0.382;2023-04-06T13:01:12;4.25;;;0.90;;
30036;SDS011;36325;51.512;-0.382;2023-04-06T13:03:40;2.50;;;0.95;;
30036;SDS011;36325;51.512;-0.382;2023-04-06T13:06:10;8.55;;;1.30;;
30036;SDS011;36325;51.512;-0.382;2023-04-06T13:08:39;2.65;;;0.85;;
30036;SDS011;36325;51.512;-0.382;2023-04-06T13:11:07;2.60;;;0.75;;
30036;SDS011;36325;51.512;-0.382;2023-04-06T13:13:37;2.28;;;0.90;;
30036;SDS011;36325;51.512;-0.382;2023-04-06T13:16:05;5.13;;;1.10;;
30036;SDS011;36325;51.512;-0.382;2023-04-06T13:18:43;6.22;;;0.60;;
30036;SDS011;36325;51.512;-0.382;2023-04-06T13:21:13;5.22;;;1.00;;
30036;SDS011;36325;51.512;-0.382;2023-04-06T13:23:42;3.72;;;0.98;;
30036;SDS011;36325;51.512;-0.382;2023-04-06T13:26:10;6.05;;;1.23;;
30036;SDS011;36325;51.512;-0.382;2023-04-06T13:28:40;5.05;;;1.10;;
30036;SDS011;36325;51.512;-0.382;2023-04-06T13:31:07;3.40;;;0.90;;
30036;SDS011;36325;51.512;-0.382;2023-04-06T13:33:36;4.20;;;1.10;;
30036;SDS011;36325;51.512;-0.382;2023-04-06T13:36:04;2.90;;;0.98;;
30036;SDS011;36325;51.512;-0.382;2023-04-06T13:38:33;2.17;;;0.70;;
30036;SDS011;36325;51.512;-0.382;2023-04-06T13:41:01;3.53;;;0.88;;
30036;SDS011;36325;51.512;-0.382;2023-04-06T13:43:29;3.15;;;0.85;;
30036;SDS011;36325;51.512;-0.382;2023-04-06T13:45:57;2.05;;;0.77;;
30036;SDS011;36325;51.512;-0.382;2023-04-06T13:48:26;4.15;;;0.90;;
30036;SDS011;36325;51.512;-0.382;2023-04-06T13:50:53;2.33;;;0.82;;
30036;SDS011;36325;51.512;-0.382;2023-04-06T13:53:21;1.90;;;0.50;;
30036;SDS011;36325;51.512;-0.382;2023-04-06T13:55:52;2.00;;;0.73;;
30036;SDS011;36325;51.512;-0.382;2023-04-06T13:58:21;3.03;;;0.93;;
30036;SDS011;36325;51.512;-0.382;2023-04-06T14:00:49;3.92;;;0.85;;
30036;SDS011;36325;51.512;-0.382;2023-04-06T14:03:17;4.68;;;1.13;;
30036;SDS011;36325;51.512;-0.382;2023-04-06T14:05:45;2.83;;;0.88;;
30036;SDS011;36325;51.512;-0.382;2023-04-06T14:08:13;3.53;;;1.20;;
30036;SDS011;36325;51.512;-0.382;2023-04-06T14:10:40;4.90;;;1.00;;
30036;SDS011;36325;51.512;-0.382;2023-04-06T14:13:11;5.95;;;1.13;;
30036;SDS011;36325;51.512;-0.382;2023-04-06T14:15:38;4.88;;;1.38;;
30036;SDS011;36325;51.512;-0.382;2023-04-06T14:18:05;5.78;;;1.60;;
30036;SDS011;36325;51.512;-0.382;2023-04-06T14:20:33;7.60;;;0.85;;
30036;SDS011;36325;51.512;-0.382;2023-04-06T14:23:01;8.32;;;0.95;;
30036;SDS011;36325;51.512;-0.382;2023-04-06T14:25:29;3.95;;;1.42;;
30036;SDS011;36325;51.512;-0.382;2023-04-06T14:28:01;4.05;;;1.27;;
30036;SDS011;36325;51.512;-0.382;2023-04-06T14:30:31;2.85;;;1.23;;
30036;SDS011;36325;51.512;-0.382;2023-04-06T14:32:59;1.80;;;1.00;;
30036;SDS011;36325;51.512;-0.382;2023-04-06T14:35:27;4.93;;;1.40;;
30036;SDS011;36325;51.512;-0.382;2023-04-06T14:37:55;4.22;;;1.10;;
30036;SDS011;36325;51.512;-0.382;2023-04-06T14:40:24;3.50;;;1.10;;
30036;SDS011;36325;51.512;-0.382;2023-04-06T14:42:53;5.18;;;1.25;;
30036;SDS011;36325;51.512;-0.382;2023-04-06T14:45:22;2.38;;;0.80;;
30036;SDS011;36325;51.512;-0.382;2023-04-06T14:47:49;1.10;;;0.60;;
30036;SDS011;36325;51.512;-0.382;2023-04-06T14:50:17;3.72;;;0.80;;
30036;SDS011;36325;51.512;-0.382;2023-04-06T14:52:44;1.10;;;0.60;;